Time;durP1;ratioP1;P1;durP2;ratioP2;P2;SDS_P1;SDS_P2;PMS_P1;PMS_P2;Temp;Humidity;BMP_temperature;BMP_pressure;BME280_temperature;BME280_humidity;BME280_pressure;Samples;Min_cycle;Max_cycle;Signal;HPM_P1;HPM_P2
2022/04/16 00:00:50;;;;;;;5.00;2.33;;;;;;;14.21;33.96;93760.31;4909579;28;20050;-71
2022/04/16 00:03:22;;;;;;;2.95;1.70;;;;;;;14.38;34.06;93789.50;4906047;29;20362;-72
2022/04/16 00:05:53;;;;;;;6.07;2.33;;;;;;;14.34;33.85;93799.31;4902938;28;20051;-74
2022/04/16 00:08:23;;;;;;;5.82;2.13;;;;;;;14.38;33.33;93799.41;4908608;29;20068;-73
2022/04/16 00:10:49;;;;;;;2.78;1.70;;;;;;;14.40;33.76;93791.84;4900812;28;20443;-73
2022/04/16 00:13:16;;;;;;;2.53;1.52;;;;;;;14.42;33.79;93790.38;4910694;29;20024;-72
2022/04/16 00:15:43;;;;;;;3.20;1.80;;;;;;;14.33;33.91;93783.59;4901910;29;20583;-73
2022/04/16 00:18:09;;;;;;;5.57;2.20;;;;;;;14.27;34.28;93776.94;4915453;28;20941;-73
2022/04/16 00:20:35;;;;;;;5.20;2.53;;;;;;;14.08;34.86;93774.84;4908432;29;20075;-73
2022/04/16 00:23:01;;;;;;;4.38;2.20;;;;;;;14.03;33.92;93767.03;4911889;28;20032;-74
2022/04/16 00:25:26;;;;;;;2.28;1.80;;;;;;;14.06;33.80;93777.06;4915052;29;20309;-73
2022/04/16 00:27:52;;;;;;;2.78;1.85;;;;;;;13.97;34.26;93779.84;4904142;29;20557;-73
2022/04/16 00:30:18;;;;;;;2.72;1.80;;;;;;;13.96;34.13;93772.16;4904473;29;20098;-73
2022/04/16 00:32:44;;;;;;;3.22;1.90;;;;;;;13.95;34.25;93776.72;4908892;29;20499;-73
2022/04/16 00:35:10;;;;;;;4.70;1.98;;;;;;;13.90;33.94;93758.22;4896623;29;20735;-73
2022/04/16 00:37:36;;;;;;;3.03;2.22;;;;;;;14.05;33.99;93764.78;4907946;29;20069;-73
2022/04/16 00:40:03;;;;;;;3.28;2.03;;;;;;;14.01;33.90;93769.25;4906080;29;20036;-73
2022/04/16 00:42:44;;;;;;;3.58;2.00;;;;;;;13.60;33.97;93716.78;4908851;29;20530;-73
2022/04/16 00:45:10;;;;;;;2.50;1.88;;;;;;;13.81;33.74;93786.19;4903409;28;20048;-73
2022/04/16 00:47:36;;;;;;;3.28;1.75;;;;;;;13.74;33.58;93782.16;4911459;29;20462;-73
2022/04/16 00:50:05;;;;;;;2.83;1.60;;;;;;;13.66;33.74;93775.03;4907622;29;20040;-73
2022/04/16 00:52:30;;;;;;;2.35;2.15;;;;;;;13.57;33.71;93755.63;4910502;29;20059;-73
2022/04/16 00:54:56;;;;;;;2.92;1.52;;;;;;;13.55;33.98;93760.50;4905593;28;20472;-73
2022/04/16 00:57:23;;;;;;;4.00;1.83;;;;;;;13.41;33.88;93749.34;4907598;28;20047;-73
2022/04/16 00:59:48;;;;;;;3.15;1.63;;;;;;;13.48;33.64;93762.97;4908459;29;20036;-73
2022/04/16 01:02:14;;;;;;;2.15;1.65;;;;;;;13.41;33.42;93756.59;4910558;29;20491;-73
2022/04/16 01:04:39;;;;;;;3.63;2.08;;;;;;;13.38;33.58;93752.72;4910221;29;20024;-73
2022/04/16 01:07:08;;;;;;;6.18;2.40;;;;;;;13.48;33.52;93757.63;4912599;29;20482;-73
2022/04/16 01:09:36;;;;;;;4.55;1.95;;;;;;;13.52;34.01;93752.38;4907839;28;20032;-73
2022/04/16 01:12:01;;;;;;;3.10;2.40;;;;;;;13.54;33.76;93750.97;4913504;28;20042;-73
2022/04/16 01:14:28;;;;;;;3.80;2.08;;;;;;;13.57;33.86;93758.31;4911578;28;20059;-73
2022/04/16 01:16:55;;;;;;;2.90;1.98;;;;;;;13.48;34.01;93736.25;4908714;29;20341;-73
2022/04/16 01:19:21;;;;;;;3.55;2.03;;;;;;;13.79;34.11;93762.44;4909274;29;20494;-73
2022/04/16 01:21:48;;;;;;;3.17;2.58;;;;;;;13.71;34.19;93771.38;4911614;29;20058;-74
2022/04/16 01:24:14;;;;;;;3.08;2.13;;;;;;;13.55;34.56;93768.53;4907520;29;20083;-73
2022/04/16 01:26:41;;;;;;;4.25;2.45;;;;;;;13.23;35.56;93745.31;4910833;28;20051;-73
2022/04/16 01:29:07;;;;;;;4.88;2.42;;;;;;;13.11;35.63;93742.63;4909962;29;20036;-73
2022/04/16 01:31:33;;;;;;;2.95;2.50;;;;;;;12.83;36.06;93711.19;4910867;29;20469;-73
2022/04/16 01:33:58;;;;;;;4.38;2.97;;;;;;;13.07;36.59;93785.22;4910472;29;20040;-73
2022/04/16 01:36:25;;;;;;;4.00;2.67;;;;;;;12.71;37.03;93756.50;4909801;28;20561;-75
2022/04/16 01:38:51;;;;;;;10.25;3.20;;;;;;;12.75;37.08;93770.75;4912422;29;21059;-73
2022/04/16 01:41:17;;;;;;;3.47;2.70;;;;;;;12.53;37.06;93748.94;4907688;29;20090;-73
2022/04/16 01:43:42;;;;;;;9.48;2.92;;;;;;;12.70;37.41;93784.31;4913245;28;20064;-74
2022/04/16 01:46:07;;;;;;;6.85;2.78;;;;;;;12.80;37.19;93775.13;4909902;29;20031;-72
2022/04/16 01:48:33;;;;;;;7.90;3.10;;;;;;;12.85;37.14;93773.03;4908117;28;20139;-73
2022/04/16 01:50:58;;;;;;;5.38;3.20;;;;;;;12.93;37.23;93783.94;4910496;28;20046;-73
2022/04/16 01:53:24;;;;;;;5.13;2.97;;;;;;;12.87;36.85;93781.47;4909650;29;20138;-73
2022/04/16 01:55:49;;;;;;;5.13;2.05;;;;;;;12.86;36.50;93768.44;4906895;28;20034;-73
2022/04/16 01:58:15;;;;;;;3.20;2.30;;;;;;;12.89;36.67;93767.81;4911181;29;20043;-73
2022/04/16 02:00:41;;;;;;;8.02;2.67;;;;;;;12.77;36.83;93754.41;4911259;28;20044;-72
2022/04/16 02:03:08;;;;;;;3.40;2.83;;;;;;;12.89;36.83;93763.25;4909150;29;20047;-73
2022/04/16 02:05:34;;;;;;;5.50;3.35;;;;;;;12.83;36.45;93747.75;4925743;28;20043;-73
2022/04/16 02:07:59;;;;;;;4.72;3.10;;;;;;;13.09;36.41;93767.00;4908788;28;20036;-73
2022/04/16 02:10:25;;;;;;;3.42;2.10;;;;;;;12.87;36.27;93744.09;4910745;29;20028;-73
2022/04/16 02:12:50;;;;;;;6.72;3.10;;;;;;;12.91;36.50;93762.16;4909204;29;20048;-73
2022/04/16 02:15:16;;;;;;;2.65;2.00;;;;;;;12.81;36.17;93742.00;4922152;28;20040;-73
2022/04/16 02:17:41;;;;;;;4.53;2.17;;;;;;;12.91;35.82;93746.91;4905205;28;20102;-73
2022/04/16 02:20:09;;;;;;;2.25;2.00;;;;;;;12.87;36.12;93754.00;4907203;28;20039;-74
2022/04/16 02:22:42;;;;;;;3.78;2.50;;;;;;;12.84;35.82;93749.34;4903944;29;20035;-73
2022/04/16 02:25:08;;;;;;;5.15;3.13;;;;;;;13.00;36.14;93765.53;4910663;29;20162;-73
2022/04/16 02:27:34;;;;;;;6.82;1.77;;;;;;;13.00;35.83;93773.53;4922149;28;20611;-73
2022/04/16 02:30:02;;;;;;;3.10;2.28;;;;;;;12.74;36.36;93745.19;4908041;28;20051;-72
2022/04/16 02:32:28;;;;;;;2.65;2.00;;;;;;;12.82;36.67;93773.66;4907153;29;20569;-73
2022/04/16 02:34:53;;;;;;;6.32;2.95;;;;;;;12.71;36.43;93774.41;4907260;28;20028;-73
2022/04/16 02:37:19;;;;;;;5.32;1.60;;;;;;;12.62;36.70;93768.34;4908429;29;20407;-73
2022/04/16 02:39:44;;;;;;;2.88;2.05;;;;;;;12.61;36.48;93762.25;4904939;29;20463;-73
2022/04/16 02:42:09;;;;;;;2.92;1.65;;;;;;;12.52;36.49;93756.16;4911940;28;20040;-74
2022/04/16 02:47:19;;;;;;;4.15;3.10;;;;;;;12.57;36.21;93745.28;4909998;29;20107;-73
2022/04/16 02:49:44;;;;;;;5.32;2.45;;;;;;;12.64;36.18;93756.25;4908234;28;20035;-73
2022/04/16 02:52:09;;;;;;;7.93;3.50;;;;;;;12.45;36.03;93740.69;4905593;29;20737;-73
2022/04/16 02:54:37;;;;;;;4.95;2.45;;;;;;;12.76;35.61;93764.28;4909467;29;20036;-73
2022/04/16 02:57:03;;;;;;;6.35;2.42;;;;;;;12.79;35.28;93752.97;4904134;29;20066;-73
2022/04/16 02:59:28;;;;;;;4.40;2.67;;;;;;;12.60;35.28;93723.34;4907166;28;20087;-73
2022/04/16 03:01:54;;;;;;;3.50;2.47;;;;;;;12.67;35.39;93749.47;4912311;28;20570;-73
2022/04/16 03:04:19;;;;;;;5.38;3.08;;;;;;;12.61;35.85;93767.59;4903164;29;20562;-73
2022/04/16 03:06:45;;;;;;;4.43;2.50;;;;;;;12.70;35.99;93765.63;4912617;29;20674;-73
2022/04/16 03:09:10;;;;;;;3.60;2.35;;;;;;;12.76;35.98;93777.63;4904580;29;20479;-73
2022/04/16 03:11:36;;;;;;;4.35;2.00;;;;;;;12.66;36.16;93742.59;4910171;29;20054;-74
2022/04/16 03:17:31;;;;;;;3.47;2.05;;;;;;;12.71;35.66;93748.47;4908588;29;20111;-73
2022/04/16 03:19:32;;;;;;;3.47;2.20;;;;;;;12.73;35.91;93758.84;4906813;29;20470;-72
2022/04/16 03:21:57;;;;;;;3.63;2.40;;;;;;;12.76;35.65;93764.28;4909936;29;20043;-73
2022/04/16 03:24:22;;;;;;;5.82;2.40;;;;;;;12.67;35.77;93744.13;4901727;28;20582;-73
2022/04/16 03:26:48;;;;;;;2.13;1.88;;;;;;;12.80;35.77;93753.78;4908703;29;20054;-74
2022/04/16 03:29:14;;;;;;;3.33;2.15;;;;;;;12.76;35.66;93748.28;4909483;29;20055;-74
2022/04/16 03:31:40;;;;;;;4.20;2.35;;;;;;;12.69;36.05;93771.28;4915173;29;20027;-73
2022/04/16 03:34:05;;;;;;;4.53;2.42;;;;;;;12.64;35.96;93772.25;4906122;29;20040;-72
2022/04/16 03:36:32;;;;;;;4.22;2.38;;;;;;;12.76;35.79;93777.63;4906912;28;20925;-73
2022/04/16 03:38:57;;;;;;;4.38;2.35;;;;;;;12.71;35.97;93775.16;4908380;28;20083;-73
2022/04/16 03:41:23;;;;;;;4.95;2.50;;;;;;;12.70;36.20;93792.31;4909373;29;20048;-73
2022/04/16 03:43:48;;;;;;;4.03;2.95;;;;;;;12.71;36.14;93780.50;4913005;29;20051;-73
2022/04/16 03:46:16;;;;;;;2.80;2.08;;;;;;;12.86;36.25;93790.59;4918442;28;20023;-72
2022/04/16 03:48:43;;;;;;;2.67;2.08;;;;;;;12.91;36.49;93808.28;4905146;29;20631;-73
2022/04/16 03:51:09;;;;;;;4.15;2.40;;;;;;;12.90;36.26;93793.41;4909688;28;20134;-73
2022/04/16 03:53:34;;;;;;;3.90;2.30;;;;;;;12.91;36.72;93807.53;4902175;29;20035;-73
2022/04/16 04:01:27;;;;;;;4.80;2.90;;;;;;;12.86;36.94;93822.63;4911563;29;20115;-73
2022/04/16 04:03:53;;;;;;;3.92;2.60;;;;;;;12.81;37.38;93825.47;4901128;29;20130;-73
2022/04/16 04:06:18;;;;;;;5.20;3.10;;;;;;;12.78;37.46;93828.81;4911505;29;20061;-73
2022/04/16 04:08:44;;;;;;;4.85;3.00;;;;;;;12.72;37.87;93829.31;4906626;29;20047;-73
2022/04/16 04:11:09;;;;;;;5.30;2.85;;;;;;;12.86;37.92;93838.63;4907849;29;20052;-73
2022/04/16 04:13:34;;;;;;;7.05;3.45;;;;;;;12.91;38.07;93834.22;4907009;29;20035;-73
2022/04/16 04:16:00;;;;;;;7.10;3.25;;;;;;;12.91;37.83;93832.31;4906556;28;20418;-73
2022/04/16 04:18:26;;;;;;;5.78;3.20;;;;;;;12.93;38.12;93826.66;4910935;28;20118;-74
2022/04/16 04:20:56;;;;;;;6.30;2.50;;;;;;;12.63;38.62;93775.25;4908171;29;20043;-72
2022/04/16 04:23:22;;;;;;;3.72;2.67;;;;;;;13.04;38.19;93796.56;4915151;28;20537;-72
2022/04/16 04:25:48;;;;;;;3.58;2.58;;;;;;;13.26;38.34;93820.22;4909584;29;20302;-74
2022/04/16 04:28:14;;;;;;;4.32;3.05;;;;;;;13.31;38.05;93824.56;4913037;29;20028;-74
2022/04/16 04:30:39;;;;;;;4.18;2.83;;;;;;;13.24;38.73;93806.44;4911006;29;20040;-73
2022/04/16 04:33:05;;;;;;;8.05;3.90;;;;;;;13.33;38.43;93817.81;4912668;29;20043;-73
2022/04/16 04:35:30;;;;;;;5.88;3.30;;;;;;;13.33;38.56;93815.13;4909538;28;21033;-73
2022/04/16 04:37:55;;;;;;;5.60;2.67;;;;;;;13.31;38.40;93797.88;4913937;29;20394;-73
2022/04/16 04:40:21;;;;;;;4.72;2.92;;;;;;;13.59;38.64;93827.47;4912775;29;20070;-74
2022/04/16 04:42:47;;;;;;;7.57;3.45;;;;;;;13.49;38.05;93812.63;4907520;28;20032;-73
2022/04/16 04:45:14;;;;;;;8.05;3.42;;;;;;;13.65;38.46;93836.81;4911021;28;20131;-73
2022/04/16 04:47:40;;;;;;;8.95;3.78;;;;;;;13.75;38.35;93828.38;4913500;29;20395;-73
2022/04/16 04:50:06;;;;;;;8.38;3.75;;;;;;;13.02;38.36;93836.16;4906206;29;20272;-72
2022/04/16 04:52:34;;;;;;;10.68;4.50;;;;;;;12.96;37.62;93826.03;4914094;29;20031;-72
2022/04/16 04:55:00;;;;;;;13.25;4.88;;;;;;;12.88;38.13;93847.09;4915384;29;20106;-74
2022/04/16 04:57:27;;;;;;;9.98;4.80;;;;;;;13.06;38.14;93844.28;4911176;28;20042;-73
2022/04/16 04:59:53;;;;;;;8.90;4.72;;;;;;;13.36;38.40;93840.41;4909764;29;20040;-73
2022/04/16 05:02:18;;;;;;;8.90;5.20;;;;;;;12.55;39.59;93832.09;4912604;28;20054;-73
2022/04/16 05:04:44;;;;;;;9.98;5.85;;;;;;;12.37;40.26;93850.09;4906584;28;20032;-73
2022/04/16 05:07:10;;;;;;;14.48;6.15;;;;;;;12.50;40.05;93851.75;4914323;29;20251;-73
2022/04/16 05:09:37;;;;;;;10.65;6.00;;;;;;;12.93;39.78;93842.66;4903003;28;20039;-73
2022/04/16 05:12:03;;;;;;;9.70;6.22;;;;;;;13.28;38.82;93843.94;4908594;28;20039;-73
2022/04/16 05:14:28;;;;;;;10.30;6.72;;;;;;;12.95;38.68;93845.81;4908969;28;20039;-73
2022/04/16 05:16:54;;;;;;;12.88;5.75;;;;;;;13.01;38.79;93845.25;4910517;28;20440;-74
2022/04/16 05:19:19;;;;;;;9.95;5.53;;;;;;;11.89;39.82;93853.13;4907299;29;20036;-72
2022/04/16 05:21:45;;;;;;;12.48;5.82;;;;;;;12.81;38.55;93846.06;4909831;29;20521;-73
2022/04/16 05:24:10;;;;;;;7.05;5.30;;;;;;;13.25;37.96;93836.59;4909918;29;20054;-73
2022/04/16 05:26:38;;;;;;;8.98;5.72;;;;;;;13.48;37.37;93840.44;4902061;28;20044;-73
2022/04/16 05:29:04;;;;;;;9.32;5.80;;;;;;;13.59;38.12;93838.91;4908581;28;20076;-73
2022/04/16 05:31:30;;;;;;;11.45;6.80;;;;;;;13.70;37.40;93832.06;4909716;29;20031;-73
2022/04/16 05:36:43;;;;;;;7.93;5.25;;;;;;;13.94;37.38;93827.84;4908481;29;20046;-73
2022/04/16 05:39:08;;;;;;;12.00;5.93;;;;;;;13.77;36.92;93769.25;4910521;28;20067;-73
2022/04/16 05:41:34;;;;;;;12.52;5.68;;;;;;;14.30;36.75;93830.53;4901631;29;20036;-73
2022/04/16 05:44:03;;;;;;;9.98;5.95;;;;;;;14.28;36.23;93808.69;4913645;29;20103;-74
2022/04/16 05:46:29;;;;;;;7.47;5.32;;;;;;;14.45;36.21;93815.69;4907981;29;20021;-73
2022/04/16 05:48:54;;;;;;;15.65;6.80;;;;;;;14.27;36.93;93817.84;4908022;29;20036;-73
2022/04/16 05:51:21;;;;;;;12.93;5.88;;;;;;;14.54;36.31;93822.50;4913753;28;21293;-74
2022/04/16 05:53:47;;;;;;;13.75;6.22;;;;;;;14.65;35.69;93830.84;4909402;29;21038;-73
2022/04/16 05:56:14;;;;;;;9.25;6.40;;;;;;;14.42;35.62;93827.06;4906979;29;20044;-73
2022/04/16 05:58:41;;;;;;;14.25;5.90;;;;;;;14.46;34.54;93804.66;4908217;29;20023;-74
2022/04/16 06:01:07;;;;;;;10.40;5.03;;;;;;;14.78;33.67;93831.59;4926197;29;20103;-73
2022/04/16 06:03:35;;;;;;;16.30;4.28;;;;;;;14.80;33.56;93813.31;4912337;28;20062;-73
2022/04/16 06:06:01;;;;;;;5.45;4.28;;;;;;;14.94;32.45;93821.75;4910660;28;20567;-74
2022/04/16 06:08:26;;;;;;;8.30;4.22;;;;;;;15.11;32.35;93824.13;4917064;28;20047;-73
2022/04/16 06:10:52;;;;;;;8.48;4.00;;;;;;;15.24;31.58;93824.88;4907153;28;20107;-74
2022/04/16 06:13:17;;;;;;;5.45;3.50;;;;;;;15.25;30.88;93815.72;4909528;29;20043;-74
2022/04/16 06:15:43;;;;;;;6.65;3.08;;;;;;;15.15;31.05;93814.31;4909605;29;20346;-73
2022/04/16 06:18:09;;;;;;;8.40;3.83;;;;;;;15.31;30.84;93804.41;4907568;28;20044;-74
2022/04/16 06:20:35;;;;;;;6.50;3.50;;;;;;;15.49;29.45;93822.88;4910274;29;20047;-73
2022/04/16 06:23:01;;;;;;;7.43;3.25;;;;;;;15.60;29.00;93831.97;4909060;28;20046;-73
2022/04/16 06:25:28;;;;;;;5.72;3.00;;;;;;;15.53;30.23;93827.22;4910182;29;20051;-72
2022/04/16 06:27:54;;;;;;;5.35;2.80;;;;;;;15.53;29.15;93823.75;4923575;28;20400;-73
2022/04/16 06:30:20;;;;;;;4.72;2.55;;;;;;;15.70;29.44;93820.75;4911867;29;20071;-72
2022/04/16 06:32:45;;;;;;;6.20;3.03;;;;;;;15.63;29.35;93824.03;4905791;29;20031;-73
2022/04/16 06:35:12;;;;;;;9.23;3.75;;;;;;;15.74;29.47;93827.75;4909843;28;20036;-74
2022/04/16 06:37:38;;;;;;;5.60;3.50;;;;;;;15.51;29.74;93817.94;4907800;29;20107;-73
2022/04/16 06:40:05;;;;;;;5.47;3.58;;;;;;;15.53;29.87;93811.13;4907696;29;20044;-73
2022/04/16 06:42:32;;;;;;;6.70;2.90;;;;;;;15.49;29.32;93817.53;4904025;29;20311;-72
2022/04/16 06:44:57;;;;;;;7.85;3.40;;;;;;;15.31;29.60;93798.25;4907659;29;20078;-73
2022/04/16 06:47:23;;;;;;;4.45;2.65;;;;;;;15.44;29.90;93819.34;4909951;28;20155;-73
2022/04/16 06:49:49;;;;;;;5.80;3.75;;;;;;;15.33;30.01;93812.09;4913770;28;20028;-74
2022/04/16 06:52:17;;;;;;;7.97;3.75;;;;;;;15.45;30.45;93804.00;4899278;29;20024;-74
2022/04/16 06:54:42;;;;;;;5.35;3.50;;;;;;;15.50;30.71;93816.41;4906606;28;20031;-74
2022/04/16 06:57:08;;;;;;;6.35;2.83;;;;;;;15.48;30.26;93813.28;4902650;29;20036;-73
2022/04/16 06:59:33;;;;;;;5.22;3.05;;;;;;;15.31;30.58;93812.44;4906138;29;20040;-73
2022/04/16 07:01:58;;;;;;;8.20;3.13;;;;;;;15.41;30.56;93814.63;4912862;28;20046;-73
2022/04/16 07:04:24;;;;;;;8.02;3.47;;;;;;;15.51;30.43;93820.63;4897865;29;20182;-73
2022/04/16 07:06:49;;;;;;;7.35;3.55;;;;;;;15.47;30.94;93823.22;4911427;28;20039;-73
2022/04/16 07:09:15;;;;;;;7.45;4.28;;;;;;;15.26;31.28;93793.94;4907560;29;20139;-73
2022/04/16 07:11:40;;;;;;;7.70;3.47;;;;;;;15.33;30.75;93806.75;4906216;28;20484;-73
2022/04/16 07:14:05;;;;;;;7.20;4.35;;;;;;;15.37;31.28;93823.69;4909817;29;20399;-73
2022/04/16 07:16:31;;;;;;;7.32;4.35;;;;;;;15.27;31.45;93803.53;4902373;29;20024;-73
2022/04/16 07:18:56;;;;;;;8.40;4.53;;;;;;;15.41;30.71;93813.84;4912577;28;20050;-74
2022/04/16 07:21:22;;;;;;;9.30;4.60;;;;;;;15.19;31.10;93801.78;4905406;28;20396;-73
2022/04/16 07:23:47;;;;;;;6.63;4.20;;;;;;;15.14;31.59;93809.28;4906237;29;20052;-73
2022/04/16 07:26:12;;;;;;;7.25;4.07;;;;;;;15.16;31.63;93813.16;4907945;29;20048;-73
2022/04/16 07:28:38;;;;;;;6.28;3.95;;;;;;;15.21;31.89;93794.16;4908318;29;20055;-74
2022/04/16 07:31:03;;;;;;;6.65;4.22;;;;;;;15.46;31.65;93805.59;4909705;28;20063;-73
2022/04/16 07:33:29;;;;;;;7.85;4.22;;;;;;;15.42;32.45;93788.59;4905237;28;20522;-73
2022/04/16 07:35:55;;;;;;;9.32;4.00;;;;;;;15.29;31.99;93789.78;4906766;28;20040;-72
2022/04/16 07:38:21;;;;;;;8.65;4.38;;;;;;;15.30;32.20;93802.09;4908470;29;20094;-73
2022/04/16 07:40:46;;;;;;;13.02;4.55;;;;;;;15.39;32.34;93800.81;4904432;28;21031;-73
2022/04/16 07:43:15;;;;;;;5.05;3.75;;;;;;;15.45;32.47;93783.34;4909267;29;20032;-73
2022/04/16 07:45:41;;;;;;;6.53;4.25;;;;;;;15.60;32.26;93789.84;4902607;29;20086;-73
2022/04/16 07:48:06;;;;;;;6.28;3.88;;;;;;;15.71;31.92;93798.19;4903191;29;20040;-73
2022/04/16 07:50:32;;;;;;;7.00;3.97;;;;;;;15.56;31.71;93798.94;4910769;29;20068;-73
2022/04/16 07:52:57;;;;;;;8.02;4.60;;;;;;;15.51;31.32;93799.19;4905372;28;20064;-73
2022/04/16 07:55:23;;;;;;;6.35;3.85;;;;;;;15.53;31.83;93786.22;4905739;29;20028;-73
2022/04/16 07:57:48;;;;;;;12.70;4.75;;;;;;;15.62;31.89;93798.34;4907710;29;20043;-74
2022/04/16 08:00:14;;;;;;;8.77;4.07;;;;;;;15.47;32.43;93766.94;4908008;29;20636;-74
2022/04/16 08:02:40;;;;;;;5.60;3.97;;;;;;;15.70;32.23;93793.94;4908458;28;20126;-74
2022/04/16 08:05:06;;;;;;;5.85;3.85;;;;;;;15.83;31.93;93784.69;4904983;28;20970;-74
2022/04/16 08:07:32;;;;;;;10.98;3.88;;;;;;;15.75;31.60;93777.59;4911540;29;20043;-73
2022/04/16 08:09:57;;;;;;;6.05;3.78;;;;;;;15.65;31.86;93767.38;4905904;28;20611;-73
2022/04/16 08:12:25;;;;;;;8.20;3.70;;;;;;;15.92;32.28;93776.47;4904356;28;20048;-74
2022/04/16 08:14:51;;;;;;;6.75;3.88;;;;;;;15.91;31.82;93773.00;4908650;28;20301;-73
2022/04/16 08:17:16;;;;;;;7.25;3.70;;;;;;;15.97;31.54;93785.03;4906530;28;20060;-73
2022/04/16 08:19:42;;;;;;;8.43;3.80;;;;;;;15.97;31.85;93782.34;4910123;28;20130;-74
2022/04/16 08:22:10;;;;;;;5.65;3.72;;;;;;;15.62;31.84;93750.09;4901156;29;20027;-73
2022/04/16 08:24:40;;;;;;;10.50;4.22;;;;;;;15.70;32.37;93764.44;4907059;28;20048;-72
2022/04/16 08:27:06;;;;;;;7.10;3.72;;;;;;;15.39;31.99;93744.53;4912017;29;20498;-74
2022/04/16 08:29:32;;;;;;;5.25;3.80;;;;;;;15.59;32.06;93750.78;4904397;28;20088;-73
2022/04/16 08:31:58;;;;;;;6.30;3.75;;;;;;;15.82;32.17;93767.03;4904953;28;20032;-73
2022/04/16 08:34:23;;;;;;;9.48;5.53;;;;;;;15.74;32.71;93758.03;4902054;29;20035;-73
2022/04/16 08:36:48;;;;;;;15.88;4.78;;;;;;;15.57;32.31;93760.28;4902632;28;20282;-74
2022/04/16 08:39:15;;;;;;;7.97;4.82;;;;;;;15.58;32.91;93759.19;4906826;29;20209;-73
2022/04/16 08:41:41;;;;;;;5.75;3.50;;;;;;;15.65;32.02;93767.38;4906989;29;21067;-73
2022/04/16 08:44:08;;;;;;;4.93;3.60;;;;;;;15.69;32.27;93755.66;4903882;29;20032;-73
2022/04/16 08:46:33;;;;;;;8.30;3.88;;;;;;;15.70;32.19;93738.41;4901810;29;20032;-73
2022/04/16 08:48:59;;;;;;;10.57;4.25;;;;;;;15.87;32.10;93748.78;4909886;28;20044;-73
2022/04/16 08:51:26;;;;;;;6.20;3.53;;;;;;;15.97;32.00;93750.16;4905181;29;20567;-72
2022/04/16 08:53:51;;;;;;;7.70;3.35;;;;;;;16.00;31.25;93744.09;4901073;28;20991;-73
2022/04/16 08:56:17;;;;;;;7.05;4.22;;;;;;;16.14;31.19;93747.09;4907556;29;20060;-73
2022/04/16 08:58:43;;;;;;;6.88;3.25;;;;;;;16.27;32.33;93743.19;4904236;29;20036;-73
2022/04/16 09:01:09;;;;;;;6.88;3.65;;;;;;;16.28;31.75;93731.31;4909706;29;20024;-73
2022/04/16 09:03:36;;;;;;;6.30;3.22;;;;;;;16.26;31.53;93722.84;4902784;28;20046;-73
2022/04/16 09:06:04;;;;;;;5.30;3.15;;;;;;;16.24;31.92;93738.50;4909809;29;20048;-72
2022/04/16 09:08:31;;;;;;;6.88;3.28;;;;;;;16.48;31.03;93734.06;4902815;28;20523;-73
2022/04/16 09:11:11;;;;;;;8.18;4.10;;;;;;;16.57;29.93;93715.88;4906871;28;20040;-73
2022/04/16 09:13:54;;;;;;;4.97;3.33;;;;;;;16.78;29.33;93729.69;4907548;29;20036;-73
2022/04/16 09:16:20;;;;;;;3.90;2.83;;;;;;;16.93;29.18;93728.06;4901713;29;20044;-73
2022/04/16 09:18:55;;;;;;;5.28;3.25;;;;;;;16.85;29.23;93702.22;4917272;28;20040;-72
2022/04/16 09:21:26;;;;;;;5.57;3.30;;;;;;;17.14;29.63;93710.47;4908630;29;20044;-73
2022/04/16 09:23:57;;;;;;;6.65;3.47;;;;;;;17.23;30.40;93696.81;4907155;28;20464;-73
2022/04/16 09:26:34;;;;;;;6.07;3.40;;;;;;;17.35;30.10;93703.94;4904274;29;20938;-72
2022/04/16 09:29:07;;;;;;;5.00;3.53;;;;;;;17.49;29.17;93712.25;4910322;28;20047;-72
2022/04/16 09:31:34;;;;;;;4.57;3.50;;;;;;;17.73;29.15;93703.81;4904458;29;20023;-72
2022/04/16 09:34:00;;;;;;;7.72;4.07;;;;;;;17.47;28.85;93690.31;4904997;29;20037;-74
2022/04/16 09:36:27;;;;;;;4.43;3.08;;;;;;;17.39;29.48;93704.78;4910043;29;20035;-72
2022/04/16 09:39:08;;;;;;;5.05;3.88;;;;;;;17.69;29.29;93702.19;4907110;29;20484;-74
2022/04/16 09:41:35;;;;;;;5.70;3.47;;;;;;;17.47;28.72;93647.28;4918570;28;20051;-74
2022/04/16 09:44:02;;;;;;;6.30;3.63;;;;;;;17.58;28.91;93696.66;4906132;28;20575;-75
2022/04/16 09:46:28;;;;;;;6.85;3.83;;;;;;;17.54;28.80;93685.84;4901869;29;20189;-75
2022/04/16 09:49:02;;;;;;;6.95;3.70;;;;;;;17.58;29.21;93694.72;4903695;29;20843;-74
2022/04/16 09:51:33;;;;;;;8.13;3.70;;;;;;;17.73;28.90;93703.03;4907417;29;20064;-74
2022/04/16 09:54:01;;;;;;;6.55;3.30;;;;;;;17.90;28.80;93697.91;4906770;29;20225;-74
2022/04/16 09:56:28;;;;;;;5.18;3.55;;;;;;;17.99;28.97;93692.31;4905806;29;20063;-74
2022/04/16 09:58:57;;;;;;;4.88;3.33;;;;;;;18.07;29.84;93685.91;4904942;29;20602;-74
2022/04/16 10:01:24;;;;;;;6.07;4.07;;;;;;;18.00;29.02;93675.78;4919810;29;20598;-74
2022/04/16 10:03:51;;;;;;;5.95;4.22;;;;;;;17.95;28.45;93665.34;4904245;28;20499;-74
2022/04/16 10:06:17;;;;;;;4.40;3.03;;;;;;;17.57;29.40;93673.56;4904534;28;20051;-74
2022/04/16 10:08:44;;;;;;;6.80;3.38;;;;;;;17.88;28.94;93683.28;4899083;29;20032;-73
2022/04/16 10:11:19;;;;;;;8.48;4.25;;;;;;;17.72;29.08;93669.97;4922595;29;20466;-72
2022/04/16 10:13:53;;;;;;;6.72;3.90;;;;;;;17.33;30.51;93688.16;4907296;29;20285;-72
2022/04/16 10:16:31;;;;;;;11.73;3.75;;;;;;;17.47;29.55;93674.16;4915695;29;20027;-72
2022/04/16 10:18:57;;;;;;;5.82;3.53;;;;;;;17.90;29.58;93654.88;4915032;29;20115;-72
2022/04/16 10:21:23;;;;;;;7.28;4.10;;;;;;;17.68;29.71;93673.75;4919696;29;20031;-72
2022/04/16 10:23:48;;;;;;;18.23;5.43;;;;;;;17.43;30.05;93673.34;4913453;29;20051;-72
2022/04/16 10:26:16;;;;;;;5.78;3.88;;;;;;;17.07;29.83;93670.00;4918262;29;20169;-72
2022/04/16 10:28:44;;;;;;;5.22;3.75;;;;;;;16.75;30.43;93661.38;4915586;29;20028;-72
2022/04/16 10:31:47;;;;;;;7.47;3.65;;;;;;;16.83;30.11;93670.34;4918565;29;20459;-72
2022/04/16 10:34:13;;;;;;;6.32;4.15;;;;;;;17.32;30.86;93664.31;4916510;29;20039;-72
2022/04/16 10:36:51;;;;;;;6.72;4.00;;;;;;;17.51;29.88;93658.88;4918836;29;20020;-72
2022/04/16 10:39:19;;;;;;;7.25;3.67;;;;;;;17.43;28.37;93631.09;4917998;28;20082;-72
2022/04/16 10:41:55;;;;;;;5.93;3.85;;;;;;;17.79;29.17;93643.19;4918335;29;20036;-72
2022/04/16 10:44:20;;;;;;;6.35;3.80;;;;;;;18.09;28.81;93655.94;4933282;29;20028;-73
2022/04/16 10:46:47;;;;;;;7.78;3.72;;;;;;;18.00;29.05;93643.50;4916914;29;20549;-72
2022/04/16 10:49:14;;;;;;;6.45;3.33;;;;;;;17.47;30.04;93652.66;4919445;29;20083;-73
2022/04/16 10:51:39;;;;;;;8.13;3.92;;;;;;;17.70;29.79;93649.97;4917404;29;20024;-72
2022/04/16 10:54:14;;;;;;;5.32;3.90;;;;;;;17.29;29.72;93614.75;4919825;29;20034;-72
2022/04/16 10:56:44;;;;;;;6.97;4.27;;;;;;;17.35;29.10;93650.19;4920174;29;20062;-72
2022/04/16 10:59:11;;;;;;;5.82;3.60;;;;;;;17.34;29.00;93645.94;4918813;29;20036;-72
2022/04/16 11:01:37;;;;;;;7.20;3.85;;;;;;;17.29;29.33;93646.22;4918757;29;20043;-72
2022/04/16 11:04:13;;;;;;;5.32;3.38;;;;;;;17.46;29.77;93634.97;4919339;29;20031;-72
2022/04/16 11:06:43;;;;;;;5.15;3.67;;;;;;;17.99;28.59;93631.19;4915111;29;20391;-73
2022/04/16 11:09:20;;;;;;;7.28;4.18;;;;;;;17.73;29.25;93641.16;4915809;29;20083;-72
2022/04/16 11:11:52;;;;;;;8.43;4.57;;;;;;;17.97;28.60;93638.88;4919197;29;20390;-72
2022/04/16 11:14:18;;;;;;;4.97;3.60;;;;;;;18.56;30.54;93640.00;4930644;29;20038;-72
2022/04/16 11:16:46;;;;;;;4.82;3.30;;;;;;;18.89;28.30;93640.00;4921715;29;20015;-72
2022/04/16 11:19:16;;;;;;;7.00;3.90;;;;;;;18.00;29.03;93616.59;4920133;29;20115;-73
2022/04/16 11:21:42;;;;;;;7.43;3.60;;;;;;;17.92;29.15;93620.31;4920953;29;20031;-72
2022/04/16 11:24:09;;;;;;;6.63;3.53;;;;;;;17.89;28.85;93623.72;4919563;29;20036;-72
2022/04/16 11:34:54;;;;;;;;;;;;;;;18.85;27.96;93623.03;4914956;29;20043;-72
2022/04/16 11:37:20;;;;;;;5.43;3.92;;;;;;;18.77;28.67;93621.41;4919217;28;19989;-72
2022/04/16 11:39:48;;;;;;;11.02;3.75;;;;;;;18.61;28.47;93601.19;4920066;29;20032;-72
2022/04/16 11:42:14;;;;;;;7.07;4.70;;;;;;;18.48;31.12;93606.81;4915379;29;20040;-72
2022/04/16 11:44:41;;;;;;;7.85;5.07;;;;;;;18.81;30.46;93611.47;4916468;29;20455;-72
2022/04/16 11:47:14;;;;;;;6.30;3.60;;;;;;;18.84;29.86;93604.53;4917265;29;20028;-72
2022/04/16 11:49:51;;;;;;;5.63;3.83;;;;;;;18.78;29.24;93590.63;4935004;29;20071;-72
2022/04/16 11:52:22;;;;;;;4.72;3.25;;;;;;;19.00;29.34;93586.22;4921935;29;20380;-72
2022/04/16 11:54:47;;;;;;;6.95;4.72;;;;;;;18.95;28.61;93588.47;4917317;29;20110;-72